sensor_id;sensor_type;location;lat;lon;timestamp;pressure;altitude;pressure_sealevel;temperature;humidity
50011;BME280;35899;50.352;19.390;2023-06-14T01:02:36;97704.67;;;11.78;72.46
50011;BME280;35899;50.352;19.390;2023-06-14T01:05:03;97703.92;;;11.76;72.56
50011;BME280;35899;50.352;19.390;2023-06-14T01:12:53;97698.23;;;11.69;72.85
50011;BME280;35899;50.352;19.390;2023-06-14T01:15:21;97696.83;;;11.71;73.09
50011;BME280;35899;50.352;19.390;2023-06-14T01:17:49;97696.45;;;11.74;73.26
50011;BME280;35899;50.352;19.390;2023-06-14T01:20:16;97694.38;;;11.77;73.33
50011;BME280;35899;50.352;19.390;2023-06-14T01:22:53;97692.72;;;11.78;73.39
50011;BME280;35899;50.352;19.390;2023-06-14T01:25:20;97690.30;;;11.80;73.41
50011;BME280;35899;50.352;19.390;2023-06-14T01:27:48;97688.54;;;11.78;73.28
50011;BME280;35899;50.352;19.390;2023-06-14T01:30:16;97684.02;;;11.76;73.29
50011;BME280;35899;50.352;19.390;2023-06-14T01:32:43;97682.35;;;11.72;73.21
50011;BME280;35899;50.352;19.390;2023-06-14T01:35:10;97681.41;;;11.69;73.37
50011;BME280;35899;50.352;19.390;2023-06-14T01:37:37;97682.03;;;11.66;73.53
50011;BME280;35899;50.352;19.390;2023-06-14T01:40:06;97683.80;;;11.65;73.85
50011;BME280;35899;50.352;19.390;2023-06-14T01:42:34;97683.86;;;11.66;74.29
50011;BME280;35899;50.352;19.390;2023-06-14T01:45:02;97684.65;;;11.67;74.41
50011;BME280;35899;50.352;19.390;2023-06-14T01:47:32;97682.30;;;11.68;74.45
50011;BME280;35899;50.352;19.390;2023-06-14T01:49:59;97684.04;;;11.71;74.80
50011;BME280;35899;50.352;19.390;2023-06-14T01:52:26;97684.88;;;11.71;74.87
50011;BME280;35899;50.352;19.390;2023-06-14T01:54:52;97680.36;;;11.73;75.09
50011;BME280;35899;50.352;19.390;2023-06-14T01:57:19;97677.55;;;11.76;75.30
50011;BME280;35899;50.352;19.390;2023-06-14T01:59:45;97680.19;;;11.80;75.39
50011;BME280;35899;50.352;19.390;2023-06-14T02:02:12;97678.90;;;11.83;75.49
50011;BME280;35899;50.352;19.390;2023-06-14T02:04:41;97678.34;;;11.86;75.64
50011;BME280;35899;50.352;19.390;2023-06-14T02:07:08;97681.78;;;11.89;75.57
50011;BME280;35899;50.352;19.390;2023-06-14T02:09:34;97679.33;;;11.89;75.73
50011;BME280;35899;50.352;19.390;2023-06-14T02:12:01;97676.17;;;11.83;75.55
50011;BME280;35899;50.352;19.390;2023-06-14T02:14:29;97677.42;;;11.78;75.68
50011;BME280;35899;50.352;19.390;2023-06-14T02:16:55;97671.09;;;11.74;75.75
50011;BME280;35899;50.352;19.390;2023-06-14T02:19:22;97674.50;;;11.71;76.04
50011;BME280;35899;50.352;19.390;2023-06-14T02:21:48;97674.54;;;11.66;76.26
50011;BME280;35899;50.352;19.390;2023-06-14T02:24:15;97670.97;;;11.65;76.39
50011;BME280;35899;50.352;19.390;2023-06-14T02:26:41;97673.29;;;11.64;76.68
50011;BME280;35899;50.352;19.390;2023-06-14T02:29:08;97673.88;;;11.64;76.83
50011;BME280;35899;50.352;19.390;2023-06-14T02:31:36;97672.73;;;11.63;77.15
50011;BME280;35899;50.352;19.390;2023-06-14T02:34:03;97676.39;;;11.62;77.30
50011;BME280;35899;50.352;19.390;2023-06-14T02:36:29;97675.41;;;11.61;77.53
50011;BME280;35899;50.352;19.390;2023-06-14T02:38:56;97675.77;;;11.61;77.76
50011;BME280;35899;50.352;19.390;2023-06-14T02:41:24;97676.81;;;11.62;78.21
50011;BME280;35899;50.352;19.390;2023-06-14T02:43:53;97679.45;;;11.63;78.40
50011;BME280;35899;50.352;19.390;2023-06-14T02:46:19;97677.46;;;11.68;78.67
50011;BME280;35899;50.352;19.390;2023-06-14T02:48:48;97675.90;;;11.75;78.76
50011;BME280;35899;50.352;19.390;2023-06-14T02:51:14;97673.56;;;11.81;78.80
50011;BME280;35899;50.352;19.390;2023-06-14T02:53:41;97675.04;;;11.84;78.53
50011;BME280;35899;50.352;19.390;2023-06-14T02:56:09;97674.81;;;11.85;78.59
50011;BME280;35899;50.352;19.390;2023-06-14T02:58:39;97676.63;;;11.84;78.50
50011;BME280;35899;50.352;19.390;2023-06-14T03:01:06;97671.79;;;11.84;78.45
50011;BME280;35899;50.352;19.390;2023-06-14T03:03:33;97670.91;;;11.86;78.52
50011;BME280;35899;50.352;19.390;2023-06-14T03:06:00;97669.57;;;11.87;78.67
50011;BME280;35899;50.352;19.390;2023-06-14T03:08:26;97664.73;;;11.89;78.72
50011;BME280;35899;50.352;19.390;2023-06-14T03:10:54;97666.83;;;11.92;78.68
50011;BME280;35899;50.352;19.390;2023-06-14T03:13:20;97665.59;;;11.94;78.72
50011;BME280;35899;50.352;19.390;2023-06-14T03:15:47;97668.67;;;11.97;78.90
50011;BME280;35899;50.352;19.390;2023-06-14T03:18:14;97667.71;;;11.98;78.95
50011;BME280;35899;50.352;19.390;2023-06-14T03:20:41;97669.02;;;11.99;79.02
50011;BME280;35899;50.352;19.390;2023-06-14T03:23:08;97671.61;;;11.97;78.94
50011;BME280;35899;50.352;19.390;2023-06-14T03:25:35;97670.71;;;11.95;79.04
50011;BME280;35899;50.352;19.390;2023-06-14T03:28:01;97671.25;;;11.93;79.14
50011;BME280;35899;50.352;19.390;2023-06-14T03:30:29;97668.59;;;11.91;79.27
50011;BME280;35899;50.352;19.390;2023-06-14T03:32:56;97669.95;;;11.91;79.27
50011;BME280;35899;50.352;19.390;2023-06-14T03:35:25;97667.17;;;11.94;79.45
50011;BME280;35899;50.352;19.390;2023-06-14T03:37:52;97664.83;;;11.97;79.54
50011;BME280;35899;50.352;19.390;2023-06-14T03:40:18;97662.88;;;12.02;79.56
50011;BME280;35899;50.352;19.390;2023-06-14T03:42:47;97665.12;;;12.09;79.67
50011;BME280;35899;50.352;19.390;2023-06-14T03:45:13;97662.67;;;12.13;79.85
50011;BME280;35899;50.352;19.390;2023-06-14T03:47:40;97664.59;;;12.18;79.99
50011;BME280;35899;50.352;19.390;2023-06-14T03:50:06;97670.27;;;12.25;80.15
50011;BME280;35899;50.352;19.390;2023-06-14T03:52:33;97671.54;;;12.30;80.06
50011;BME280;35899;50.352;19.390;2023-06-14T03:55:00;97671.10;;;12.36;80.30
50011;BME280;35899;50.352;19.390;2023-06-14T03:57:29;97677.50;;;12.38;80.28
50011;BME280;35899;50.352;19.390;2023-06-14T03:59:56;97680.55;;;12.37;80.39
50011;BME280;35899;50.352;19.390;2023-06-14T04:02:23;97677.80;;;12.34;80.58
50011;BME280;35899;50.352;19.390;2023-06-14T04:04:49;97686.20;;;12.33;80.81
50011;BME280;35899;50.352;19.390;2023-06-14T04:07:16;97682.94;;;12.33;81.10
50011;BME280;35899;50.352;19.390;2023-06-14T04:09:43;97682.90;;;12.31;81.34
50011;BME280;35899;50.352;19.390;2023-06-14T04:12:09;97679.63;;;12.27;81.57
50011;BME280;35899;50.352;19.390;2023-06-14T04:14:36;97677.64;;;12.26;81.84
50011;BME280;35899;50.352;19.390;2023-06-14T04:17:03;97679.08;;;12.27;82.29
50011;BME280;35899;50.352;19.390;2023-06-14T04:19:32;97679.34;;;12.26;82.71
50011;BME280;35899;50.352;19.390;2023-06-14T04:21:59;97683.23;;;12.29;82.96
50011;BME280;35899;50.352;19.390;2023-06-14T04:24:25;97682.67;;;12.34;83.17
50011;BME280;35899;50.352;19.390;2023-06-14T04:26:52;97684.06;;;12.37;83.27
50011;BME280;35899;50.352;19.390;2023-06-14T04:29:20;97686.37;;;12.38;83.41
50011;BME280;35899;50.352;19.390;2023-06-14T04:31:55;97686.88;;;12.42;83.58
50011;BME280;35899;50.352;19.390;2023-06-14T04:34:23;97684.61;;;12.47;83.76
50011;BME280;35899;50.352;19.390;2023-06-14T04:36:53;97684.38;;;12.49;83.94
50011;BME280;35899;50.352;19.390;2023-06-14T04:39:21;97686.31;;;12.51;84.01
50011;BME280;35899;50.352;19.390;2023-06-14T04:41:50;97685.45;;;12.51;84.40
50011;BME280;35899;50.352;19.390;2023-06-14T04:44:16;97684.64;;;12.50;84.49
50011;BME280;35899;50.352;19.390;2023-06-14T04:46:45;97686.60;;;12.54;84.77
50011;BME280;35899;50.352;19.390;2023-06-14T04:49:16;97685.77;;;12.56;84.95
50011;BME280;35899;50.352;19.390;2023-06-14T04:51:45;97687.21;;;12.57;85.09
50011;BME280;35899;50.352;19.390;2023-06-14T04:54:12;97685.42;;;12.58;85.18
50011;BME280;35899;50.352;19.390;2023-06-14T04:56:39;97686.10;;;12.60;85.55
50011;BME280;35899;50.352;19.390;2023-06-14T04:59:06;97688.29;;;12.63;85.73
50011;BME280;35899;50.352;19.390;2023-06-14T05:01:32;97690.56;;;12.67;85.74
50011;BME280;35899;50.352;19.390;2023-06-14T05:03:59;97687.84;;;12.70;86.04
50011;BME280;35899;50.352;19.390;2023-06-14T05:06:25;97689.23;;;12.75;86.15
50011;BME280;35899;50.352;19.390;2023-06-14T05:08:55;97689.79;;;12.79;86.32
50011;BME280;35899;50.352;19.390;2023-06-14T05:11:26;97696.27;;;12.80;86.54
50011;BME280;35899;50.352;19.390;2023-06-14T05:13:54;97696.01;;;12.81;86.57
50011;BME280;35899;50.352;19.390;2023-06-14T05:16:23;97701.52;;;12.82;86.68
50011;BME280;35899;50.352;19.390;2023-06-14T05:18:50;97703.71;;;12.85;87.02
50011;BME280;35899;50.352;19.390;2023-06-14T05:21:17;97703.67;;;12.87;87.03
50011;BME280;35899;50.352;19.390;2023-06-14T05:23:44;97705.02;;;12.88;87.11
50011;BME280;35899;50.352;19.390;2023-06-14T05:26:10;97706.33;;;12.88;87.12
50011;BME280;35899;50.352;19.390;2023-06-14T05:28:37;97707.57;;;12.88;87.39
50011;BME280;35899;50.352;19.390;2023-06-14T05:31:03;97711.98;;;12.89;87.48
50011;BME280;35899;50.352;19.390;2023-06-14T05:33:30;97712.63;;;12.88;87.43
50011;BME280;35899;50.352;19.390;2023-06-14T05:35:56;97714.01;;;12.84;87.41
50011;BME280;35899;50.352;19.390;2023-06-14T05:38:23;97716.05;;;12.82;87.52
50011;BME280;35899;50.352;19.390;2023-06-14T05:40:49;97718.02;;;12.84;87.85
50011;BME280;35899;50.352;19.390;2023-06-14T05:43:16;97717.92;;;12.87;87.80
50011;BME280;35899;50.352;19.390;2023-06-14T05:45:42;97719.61;;;12.96;88.02
50011;BME280;35899;50.352;19.390;2023-06-14T05:48:09;97717.96;;;13.03;88.22
50011;BME280;35899;50.352;19.390;2023-06-14T05:50:35;97714.11;;;13.10;88.03
50011;BME280;35899;50.352;19.390;2023-06-14T05:53:02;97714.50;;;13.18;87.98
50011;BME280;35899;50.352;19.390;2023-06-14T05:55:28;97717.06;;;13.24;88.02
50011;BME280;35899;50.352;19.390;2023-06-14T05:57:55;97718.55;;;13.32;87.95
50011;BME280;35899;50.352;19.390;2023-06-14T06:00:21;97719.98;;;13.38;87.92
50011;BME280;35899;50.352;19.390;2023-06-14T06:02:48;97723.00;;;13.41;87.92
50011;BME280;35899;50.352;19.390;2023-06-14T06:05:15;97720.42;;;13.43;87.93
50011;BME280;35899;50.352;19.390;2023-06-14T06:07:42;97717.86;;;13.42;87.77
50011;BME280;35899;50.352;19.390;2023-06-14T06:10:08;97718.34;;;13.45;87.87
50011;BME280;35899;50.352;19.390;2023-06-14T06:12:35;97716.27;;;13.50;87.96
50011;BME280;35899;50.352;19.390;2023-06-14T06:15:02;97721.25;;;13.57;88.00
50011;BME280;35899;50.352;19.390;2023-06-14T06:17:30;97716.85;;;13.62;87.92
50011;BME280;35899;50.352;19.390;2023-06-14T06:20:14;97714.67;;;13.71;87.89
50011;BME280;35899;50.352;19.390;2023-06-14T06:22:40;97714.46;;;13.86;87.98
50011;BME280;35899;50.352;19.390;2023-06-14T06:25:07;97712.02;;;14.12;87.71
50011;BME280;35899;50.352;19.390;2023-06-14T06:27:33;97715.38;;;14.49;87.69
50011;BME280;35899;50.352;19.390;2023-06-14T06:30:00;97715.89;;;14.78;87.02
50011;BME280;35899;50.352;19.390;2023-06-14T06:32:27;97717.52;;;15.08;86.69
50011;BME280;35899;50.352;19.390;2023-06-14T06:34:53;97721.77;;;15.27;86.03
50011;BME280;35899;50.352;19.390;2023-06-14T06:37:20;97723.95;;;15.33;85.74
50011;BME280;35899;50.352;19.390;2023-06-14T06:39:46;97726.15;;;15.45;85.18
50011;BME280;35899;50.352;19.390;2023-06-14T06:42:12;97732.06;;;15.53;84.58
50011;BME280;35899;50.352;19.390;2023-06-14T06:44:41;97736.27;;;15.58;84.49
50011;BME280;35899;50.352;19.390;2023-06-14T06:47:08;97737.73;;;15.50;84.31
50011;BME280;35899;50.352;19.390;2023-06-14T06:49:34;97737.48;;;15.34;83.71
50011;BME280;35899;50.352;19.390;2023-06-14T06:52:01;97739.98;;;15.14;83.65
50011;BME280;35899;50.352;19.390;2023-06-14T06:54:29;97738.98;;;15.04;84.02
50011;BME280;35899;50.352;19.390;2023-06-14T06:56:55;97742.67;;;15.02;84.20
50011;BME280;35899;50.352;19.390;2023-06-14T06:59:22;97745.98;;;14.92;84.34
50011;BME280;35899;50.352;19.390;2023-06-14T07:01:48;97745.75;;;14.87;84.54
50011;BME280;35899;50.352;19.390;2023-06-14T07:04:15;97745.92;;;14.81;84.34
50011;BME280;35899;50.352;19.390;2023-06-14T07:06:42;97744.48;;;14.76;83.98
50011;BME280;35899;50.352;19.390;2023-06-14T07:09:08;97747.13;;;14.77;84.26
50011;BME280;35899;50.352;19.390;2023-06-14T07:11:37;97748.04;;;14.77;84.78
50011;BME280;35899;50.352;19.390;2023-06-14T07:14:03;97749.96;;;14.71;84.82
50011;BME280;35899;50.352;19.390;2023-06-14T07:16:30;97751.29;;;14.68;84.96
50011;BME280;35899;50.352;19.390;2023-06-14T07:18:56;97751.92;;;14.75;85.03
50011;BME280;35899;50.352;19.390;2023-06-14T07:21:23;97752.52;;;15.06;84.75
50011;BME280;35899;50.352;19.390;2023-06-14T07:23:49;97757.30;;;15.64;84.36
50011;BME280;35899;50.352;19.390;2023-06-14T07:26:15;97763.68;;;16.06;83.86
50011;BME280;35899;50.352;19.390;2023-06-14T07:28:42;97767.80;;;16.23;83.39
50011;BME280;35899;50.352;19.390;2023-06-14T07:31:08;97772.95;;;16.26;82.59
50011;BME280;35899;50.352;19.390;2023-06-14T07:33:37;97774.23;;;16.20;82.15
50011;BME280;35899;50.352;19.390;2023-06-14T07:36:04;97776.88;;;16.14;81.70
50011;BME280;35899;50.352;19.390;2023-06-14T07:38:31;97778.77;;;16.09;81.29
50011;BME280;35899;50.352;19.390;2023-06-14T07:40:57;97779.48;;;16.20;81.39
50011;BME280;35899;50.352;19.390;2023-06-14T07:43:24;97784.52;;;16.53;81.26
50011;BME280;35899;50.352;19.390;2023-06-14T07:45:50;97783.59;;;16.57;80.58
50011;BME280;35899;50.352;19.390;2023-06-14T07:48:32;97784.05;;;16.56;80.66
50011;BME280;35899;50.352;19.390;2023-06-14T07:50:59;97789.98;;;16.54;80.56
50011;BME280;35899;50.352;19.390;2023-06-14T07:53:26;97787.04;;;16.69;80.54
50011;BME280;35899;50.352;19.390;2023-06-14T07:55:52;97790.70;;;16.79;80.23
50011;BME280;35899;50.352;19.390;2023-06-14T07:58:20;97797.27;;;16.76;79.70
50011;BME280;35899;50.352;19.390;2023-06-14T08:00:47;97795.15;;;16.64;79.43
50011;BME280;35899;50.352;19.390;2023-06-14T08:03:13;97795.80;;;16.50;79.36
50011;BME280;35899;50.352;19.390;2023-06-14T08:05:40;97794.16;;;16.34;79.51
50011;BME280;35899;50.352;19.390;2023-06-14T08:08:07;97790.62;;;16.24;79.70
50011;BME280;35899;50.352;19.390;2023-06-14T08:10:33;97788.64;;;16.21;79.58
50011;BME280;35899;50.352;19.390;2023-06-14T08:13:02;97787.51;;;16.33;79.30
50011;BME280;35899;50.352;19.390;2023-06-14T08:15:31;97791.38;;;16.51;79.30
50011;BME280;35899;50.352;19.390;2023-06-14T08:17:58;97787.97;;;16.66;79.52
50011;BME280;35899;50.352;19.390;2023-06-14T08:20:26;97784.67;;;16.71;78.54
50011;BME280;35899;50.352;19.390;2023-06-14T08:22:53;97783.92;;;16.72;78.66
50011;BME280;35899;50.352;19.390;2023-06-14T08:25:19;97785.92;;;16.78;78.14
50011;BME280;35899;50.352;19.390;2023-06-14T08:27:46;97786.08;;;16.90;78.42
50011;BME280;35899;50.352;19.390;2023-06-14T08:30:13;97782.76;;;16.96;78.03
50011;BME280;35899;50.352;19.390;2023-06-14T08:32:39;97787.34;;;16.96;78.20
50011;BME280;35899;50.352;19.390;2023-06-14T08:35:06;97789.46;;;16.79;77.99
50011;BME280;35899;50.352;19.390;2023-06-14T08:37:32;97791.66;;;16.58;78.03
50011;BME280;35899;50.352;19.390;2023-06-14T08:39:59;97794.74;;;16.43;78.04
50011;BME280;35899;50.352;19.390;2023-06-14T08:42:25;97793.90;;;16.47;78.50
50011;BME280;35899;50.352;19.390;2023-06-14T08:44:58;97794.35;;;16.60;78.27
50011;BME280;35899;50.352;19.390;2023-06-14T08:47:25;97799.00;;;16.78;78.18
50011;BME280;35899;50.352;19.390;2023-06-14T08:49:52;97798.50;;;16.98;78.03
50011;BME280;35899;50.352;19.390;2023-06-14T08:52:19;97796.42;;;17.10;77.74
50011;BME280;35899;50.352;19.390;2023-06-14T08:54:50;97796.89;;;17.14;77.21
50011;BME280;35899;50.352;19.390;2023-06-14T08:57:16;97803.83;;;17.17;76.82
50011;BME280;35899;50.352;19.390;2023-06-14T09:00:01;97808.71;;;17.13;76.64
50011;BME280;35899;50.352;19.390;2023-06-14T09:02:32;97809.42;;;17.20;76.73
50011;BME280;35899;50.352;19.390;2023-06-14T09:04:59;97817.40;;;17.21;76.63
50011;BME280;35899;50.352;19.390;2023-06-14T09:07:28;97823.88;;;17.07;76.38
50011;BME280;35899;50.352;19.390;2023-06-14T09:12:51;97828.27;;;16.77;76.90
50011;BME280;35899;50.352;19.390;2023-06-14T09:15:20;97831.05;;;16.67;77.24
50011;BME280;35899;50.352;19.390;2023-06-14T09:17:46;97831.94;;;16.58;77.73
50011;BME280;35899;50.352;19.390;2023-06-14T09:20:13;97830.05;;;16.46;77.89
50011;BME280;35899;50.352;19.390;2023-06-14T09:22:41;97832.69;;;16.33;78.42
50011;BME280;35899;50.352;19.390;2023-06-14T09:25:07;97833.30;;;16.25;78.55
50011;BME280;35899;50.352;19.390;2023-06-14T09:27:33;97834.06;;;16.24;78.62
50011;BME280;35899;50.352;19.390;2023-06-14T09:30:02;97834.24;;;16.30;78.75
50011;BME280;35899;50.352;19.390;2023-06-14T09:32:29;97834.71;;;16.30;78.93
50011;BME280;35899;50.352;19.390;2023-06-14T09:34:56;97833.66;;;16.19;79.06
50011;BME280;35899;50.352;19.390;2023-06-14T09:37:56;97834.59;;;16.04;78.95
50011;BME280;35899;50.352;19.390;2023-06-14T09:40:20;97833.46;;;15.82;78.93
50011;BME280;35899;50.352;19.390;2023-06-14T09:42:47;97833.93;;;15.54;79.10
50011;BME280;35899;50.352;19.390;2023-06-14T09:45:14;97834.79;;;15.35;79.93
50011;BME280;35899;50.352;19.390;2023-06-14T09:47:41;97833.21;;;15.24;80.43
50011;BME280;35899;50.352;19.390;2023-06-14T09:50:22;97834.73;;;15.13;80.76
50011;BME280;35899;50.352;19.390;2023-06-14T09:52:50;97832.27;;;15.07;81.27
50011;BME280;35899;50.352;19.390;2023-06-14T09:55:18;97836.45;;;15.01;81.61
50011;BME280;35899;50.352;19.390;2023-06-14T09:57:45;97836.72;;;14.96;82.04
50011;BME280;35899;50.352;19.390;2023-06-14T10:00:14;97837.98;;;14.94;82.40
50011;BME280;35899;50.352;19.390;2023-06-14T10:02:42;97835.62;;;14.95;82.82
50011;BME280;35899;50.352;19.390;2023-06-14T10:05:10;97834.02;;;15.01;82.76
50011;BME280;35899;50.352;19.390;2023-06-14T10:07:40;97836.05;;;15.08;82.93
50011;BME280;35899;50.352;19.390;2023-06-14T10:10:08;97835.20;;;15.13;83.28
50011;BME280;35899;50.352;19.390;2023-06-14T10:12:39;97836.70;;;15.18;83.45
50011;BME280;35899;50.352;19.390;2023-06-14T10:15:07;97841.55;;;15.16;83.36
50011;BME280;35899;50.352;19.390;2023-06-14T10:17:40;97836.45;;;15.13;83.50
50011;BME280;35899;50.352;19.390;2023-06-14T10:22:47;97838.36;;;15.13;83.97
50011;BME280;35899;50.352;19.390;2023-06-14T10:25:31;97839.73;;;15.13;83.96
50011;BME280;35899;50.352;19.390;2023-06-14T10:28:17;97838.77;;;15.18;84.32
50011;BME280;35899;50.352;19.390;2023-06-14T10:31:03;97842.75;;;15.26;84.34
50011;BME280;35899;50.352;19.390;2023-06-14T10:33:30;97839.45;;;15.30;84.31
50011;BME280;35899;50.352;19.390;2023-06-14T10:36:10;97838.26;;;15.34;84.41
50011;BME280;35899;50.352;19.390;2023-06-14T10:38:40;97836.40;;;15.41;84.32
50011;BME280;35899;50.352;19.390;2023-06-14T10:41:08;97839.86;;;15.43;84.34
50011;BME280;35899;50.352;19.390;2023-06-14T10:43:35;97840.59;;;15.42;84.16
50011;BME280;35899;50.352;19.390;2023-06-14T10:46:15;97839.05;;;15.38;84.02
50011;BME280;35899;50.352;19.390;2023-06-14T10:48:41;97838.73;;;15.38;84.31
50011;BME280;35899;50.352;19.390;2023-06-14T10:51:15;97841.89;;;15.47;84.83
50011;BME280;35899;50.352;19.390;2023-06-14T10:53:42;97842.27;;;15.60;84.79
50011;BME280;35899;50.352;19.390;2023-06-14T10:56:09;97844.16;;;15.78;84.58
50011;BME280;35899;50.352;19.390;2023-06-14T10:58:49;97840.80;;;16.05;84.41
50011;BME280;35899;50.352;19.390;2023-06-14T11:01:15;97840.08;;;16.35;84.11
50011;BME280;35899;50.352;19.390;2023-06-14T11:03:49;97836.94;;;16.67;83.66
50011;BME280;35899;50.352;19.390;2023-06-14T11:06:17;97835.67;;;17.02;83.12
50011;BME280;35899;50.352;19.390;2023-06-14T11:11:23;97827.60;;;17.56;81.66
50011;BME280;35899;50.352;19.390;2023-06-14T11:13:51;97829.48;;;17.82;81.38
50011;BME280;35899;50.352;19.390;2023-06-14T11:16:25;97825.19;;;18.23;80.76
50011;BME280;35899;50.352;19.390;2023-06-14T11:18:52;97826.52;;;18.68;79.59
50011;BME280;35899;50.352;19.390;2023-06-14T11:21:18;97821.77;;;19.07;78.60
50011;BME280;35899;50.352;19.390;2023-06-14T11:23:51;97820.13;;;19.28;77.38
50011;BME280;35899;50.352;19.390;2023-06-14T11:26:27;97817.83;;;19.49;77.06
50011;BME280;35899;50.352;19.390;2023-06-14T11:28:58;97815.05;;;19.52;76.04
50011;BME280;35899;50.352;19.390;2023-06-14T11:31:25;97815.21;;;19.39;75.89
50011;BME280;35899;50.352;19.390;2023-06-14T11:33:58;97816.80;;;19.23;75.77
50011;BME280;35899;50.352;19.390;2023-06-14T11:36:29;97811.02;;;19.13;75.31
50011;BME280;35899;50.352;19.390;2023-06-14T11:39:03;97811.15;;;19.00;75.09
50011;BME280;35899;50.352;19.390;2023-06-14T11:41:35;97806.54;;;19.01;74.97
50011;BME280;35899;50.352;19.390;2023-06-14T11:44:05;97806.67;;;19.04;74.73
50011;BME280;35899;50.352;19.390;2023-06-14T11:46:32;97806.52;;;19.07;74.63
50011;BME280;35899;50.352;19.390;2023-06-14T11:48:59;97806.64;;;19.00;74.53
50011;BME280;35899;50.352;19.390;2023-06-14T11:51:26;97808.26;;;18.90;74.27
50011;BME280;35899;50.352;19.390;2023-06-14T11:54:08;97806.04;;;18.81;74.07
50011;BME280;35899;50.352;19.390;2023-06-14T11:56:37;97806.27;;;18.78;74.11
50011;BME280;35899;50.352;19.390;2023-06-14T11:59:04;97802.05;;;18.68;74.49
50011;BME280;35899;50.352;19.390;2023-06-14T12:01:30;97800.31;;;18.56;74.36
50011;BME280;35899;50.352;19.390;2023-06-14T12:03:57;97795.94;;;18.50;74.24
50011;BME280;35899;50.352;19.390;2023-06-14T12:06:26;97792.83;;;18.48;74.23
50011;BME280;35899;50.352;19.390;2023-06-14T12:08:55;97792.52;;;18.50;74.38
50011;BME280;35899;50.352;19.390;2023-06-14T12:11:21;97787.34;;;18.60;74.74
50011;BME280;35899;50.352;19.390;2023-06-14T12:13:48;97783.23;;;18.66;74.31
50011;BME280;35899;50.352;19.390;2023-06-14T12:16:15;97787.14;;;18.68;74.39
50011;BME280;35899;50.352;19.390;2023-06-14T12:18:41;97786.77;;;18.67;73.84
50011;BME280;35899;50.352;19.390;2023-06-14T12:21:09;97786.77;;;18.60;73.94
50011;BME280;35899;50.352;19.390;2023-06-14T12:23:46;97783.52;;;18.58;74.23
50011;BME280;35899;50.352;19.390;2023-06-14T12:26:13;97783.06;;;18.56;73.96
50011;BME280;35899;50.352;19.390;2023-06-14T12:28:40;97783.75;;;18.51;73.88
50011;BME280;35899;50.352;19.390;2023-06-14T12:31:09;97787.11;;;18.51;74.12
50011;BME280;35899;50.352;19.390;2023-06-14T12:33:36;97784.15;;;18.50;73.88
50011;BME280;35899;50.352;19.390;2023-06-14T12:36:03;97782.36;;;18.49;73.62
50011;BME280;35899;50.352;19.390;2023-06-14T12:38:29;97780.95;;;18.52;74.01
50011;BME280;35899;50.352;19.390;2023-06-14T12:40:56;97777.77;;;18.56;73.64
50011;BME280;35899;50.352;19.390;2023-06-14T12:43:23;97782.64;;;18.58;73.43
50011;BME280;35899;50.352;19.390;2023-06-14T12:45:49;97781.05;;;18.48;72.86
50011;BME280;35899;50.352;19.390;2023-06-14T12:48:16;97778.55;;;18.33;72.83
50011;BME280;35899;50.352;19.390;2023-06-14T12:50:43;97777.84;;;18.23;73.22
50011;BME280;35899;50.352;19.390;2023-06-14T12:53:09;97779.77;;;18.20;73.86
50011;BME280;35899;50.352;19.390;2023-06-14T12:55:36;97780.53;;;18.23;74.31
50011;BME280;35899;50.352;19.390;2023-06-14T12:58:03;97783.27;;;18.27;74.41
50011;BME280;35899;50.352;19.390;2023-06-14T13:00:30;97782.06;;;18.31;74.15
50011;BME280;35899;50.352;19.390;2023-06-14T13:02:57;97782.42;;;18.40;73.93
50011;BME280;35899;50.352;19.390;2023-06-14T13:05:23;97787.82;;;18.57;74.14
50011;BME280;35899;50.352;19.390;2023-06-14T13:07:50;97792.34;;;18.87;74.05
50011;BME280;35899;50.352;19.390;2023-06-14T13:10:17;97797.00;;;19.27;73.77
50011;BME280;35899;50.352;19.390;2023-06-14T13:12:44;97800.56;;;19.92;73.03
50011;BME280;35899;50.352;19.390;2023-06-14T13:15:10;97799.66;;;20.47;71.52
50011;BME280;35899;50.352;19.390;2023-06-14T13:17:44;97795.04;;;20.71;70.69
50011;BME280;35899;50.352;19.390;2023-06-14T13:20:13;97793.31;;;20.80;69.67
50011;BME280;35899;50.352;19.390;2023-06-14T13:22:43;97797.23;;;20.77;68.91
50011;BME280;35899;50.352;19.390;2023-06-14T13:25:09;97796.88;;;20.84;69.22
50011;BME280;35899;50.352;19.390;2023-06-14T13:27:36;97798.95;;;20.84;68.78
50011;BME280;35899;50.352;19.390;2023-06-14T13:30:03;97795.45;;;20.83;69.05
50011;BME280;35899;50.352;19.390;2023-06-14T13:32:30;97794.93;;;20.80;69.51
50011;BME280;35899;50.352;19.390;2023-06-14T13:34:59;97793.61;;;20.94;69.60
50011;BME280;35899;50.352;19.390;2023-06-14T13:37:26;97787.29;;;21.20;69.03
50011;BME280;35899;50.352;19.390;2023-06-14T13:39:52;97782.29;;;21.72;67.77
50011;BME280;35899;50.352;19.390;2023-06-14T13:42:19;97782.11;;;22.79;66.03
50011;BME280;35899;50.352;19.390;2023-06-14T13:44:45;97780.56;;;24.18;63.65
50011;BME280;35899;50.352;19.390;2023-06-14T13:47:12;97782.78;;;25.19;62.05
50011;BME280;35899;50.352;19.390;2023-06-14T13:49:38;97780.39;;;27.78;57.30
50011;BME280;35899;50.352;19.390;2023-06-14T13:52:05;97775.56;;;29.92;52.90
50011;BME280;35899;50.352;19.390;2023-06-14T13:54:31;97773.94;;;31.21;49.42
50011;BME280;35899;50.352;19.390;2023-06-14T13:56:58;97779.17;;;32.29;46.56
50011;BME280;35899;50.352;19.390;2023-06-14T13:59:25;97782.04;;;31.76;45.25
50011;BME280;35899;50.352;19.390;2023-06-14T14:01:52;97781.52;;;31.73;44.83
50011;BME280;35899;50.352;19.390;2023-06-14T14:04:18;97778.37;;;33.10;42.73
50011;BME280;35899;50.352;19.390;2023-06-14T14:06:45;97774.92;;;34.55;40.74
50011;BME280;35899;50.352;19.390;2023-06-14T14:09:15;97772.10;;;34.36;39.39